ISM weather

Kissimmee Gateway Airport
Orlando, Florida, United States

Public forecast

Using degrees Fahrenheit for public forecast. Weather courtesy of forecast.io.

Current aviation weather report (METAR) for Kissimmee Gateway Airport

Retrieved 2019/11/11 22:56 UTC (45 minutes ago):

KISM 112256Z 10005KT 10SM CLR 23/19 A3005 RMK AO2 SLP177 T02330194 PNO

Aviation forecast (TAF) for Kissimmee Gateway Airport

Retrieved 2019/11/11 18:39 UTC (5 hours ago):

TAF KISM 111737Z 1118/1218 11008KT P6SM SCT040 BKN060 FM120500 21002KT P6SM FEW040 BKN070 FM121500 23007KT P6SM SCT030 BKN250